Terminal Aerodrome Forecast
Issued by NWS Omaha/Valley, NE

Home | Current Version | Previous Version | Text Only | Print | Product List | Glossary On
Versions: 1 2 3 4 5 6 7 8 9 10 11 12 13 14 15 16 17 18 19 20 21 22 23 24 25 26 27 28 29 30 31 32 33 34 35
000
FTUS43 KOAX 031720
TAFLNK
TAF
KLNK 031720Z 0318/0418 33022G32KT P6SM OVC025
      TEMPO 0318/0319 SCT025 BKN040
     FM031900 34025G35KT P6SM BKN025
     FM032200 34020G28KT P6SM BKN035
     FM040100 36015G23KT P6SM SCT035 BKN250
     FM040500 35012KT P6SM BKN035 BKN250
     FM041200 34006KT P6SM BKN250=

USA.gov is the U.S. government's official web portal to all federal, state and local government web resources and services.